< < Back
Terminal Aerodrome Forecast


Current Version              Previous Versions:   1  2  3  4  5  6  7  8  9  

Terminal Aerodrome Forecast

812
FTUS42 KFFC 020200 AAA
TAFATL
TAF AMD
KATL 020211Z 0202/0306 VRB03KT P6SM SCT250
     FM021200 17005KT P6SM SKC
     FM021500 17006KT P6SM SCT045
     FM030300 15003KT P6SM SKC=

Latest METAR

424
SAUS70 KWBC 020600 RRF
MTRATL
METAR KATL 020552Z 23003KT 10SM FEW250 21/17 A3004 RMK AO2 SLP164
T02060167 10261 20206 50003


USA.gov is the U.S. government's official web portal to all federal, state and local government web resources and services.